createdAt,value
2022-08-07T00:00:04.643Z,935.72
2022-08-07T00:01:44.419Z,935.71
2022-08-07T00:02:36.063Z,935.72
2022-08-07T00:03:04.685Z,935.73
2022-08-07T00:04:04.696Z,935.71
2022-08-07T00:05:05.741Z,935.72
2022-08-07T00:06:04.722Z,935.71
2022-08-07T00:07:05.101Z,935.71
2022-08-07T00:08:04.808Z,935.75
2022-08-07T00:09:16.241Z,935.74
2022-08-07T00:10:26.661Z,935.76
2022-08-07T00:11:06.357Z,935.76
2022-08-07T00:12:04.802Z,935.77
2022-08-07T00:13:17.597Z,935.81
2022-08-07T00:14:04.831Z,935.80
2022-08-07T00:15:04.843Z,935.81
2022-08-07T00:16:04.856Z,935.76
2022-08-07T00:17:04.868Z,935.81
2022-08-07T00:18:04.888Z,935.83
2022-08-07T00:19:05.660Z,935.84
2022-08-07T00:20:04.908Z,935.88
2022-08-07T00:21:08.304Z,935.91
2022-08-07T00:22:04.934Z,935.86
2022-08-07T00:23:07.951Z,935.89
2022-08-07T00:24:04.961Z,935.88
2022-08-07T00:25:05.078Z,935.90
2022-08-07T00:26:13.377Z,935.92
2022-08-07T00:27:07.592Z,935.98
2022-08-07T00:28:05.014Z,935.91
2022-08-07T00:29:05.028Z,935.91
2022-08-07T00:30:05.040Z,935.88
2022-08-07T00:31:06.427Z,935.88
2022-08-07T00:32:05.776Z,935.83
2022-08-07T00:33:05.081Z,935.83
2022-08-07T00:34:05.094Z,935.86
2022-08-07T00:35:05.109Z,935.89
2022-08-07T00:36:05.119Z,935.88
2022-08-07T00:37:05.278Z,935.87
2022-08-07T00:38:05.148Z,935.87
2022-08-07T00:39:05.224Z,935.83
2022-08-07T00:40:05.175Z,935.83
2022-08-07T00:41:05.190Z,935.81
2022-08-07T00:42:05.578Z,935.80
2022-08-07T00:43:09.758Z,935.76
2022-08-07T00:44:05.224Z,935.73
2022-08-07T00:45:06.874Z,935.76
2022-08-07T00:46:05.253Z,935.72
2022-08-07T00:47:06.536Z,935.71
2022-08-07T00:48:10.111Z,935.66
2022-08-07T00:49:05.290Z,935.65
2022-08-07T00:50:20.391Z,935.69
2022-08-07T00:51:05.320Z,935.69
2022-08-07T00:52:05.331Z,935.71
2022-08-07T00:53:05.346Z,935.69
2022-08-07T00:54:05.360Z,935.72
2022-08-07T00:55:10.353Z,935.72
2022-08-07T00:56:05.383Z,935.70
2022-08-07T00:57:05.398Z,935.70
2022-08-07T00:58:05.411Z,935.69
2022-08-07T00:59:05.428Z,935.68
2022-08-07T01:00:05.439Z,935.68
2022-08-07T01:01:05.497Z,935.66
2022-08-07T01:02:08.997Z,935.66
2022-08-07T01:03:05.481Z,935.66
2022-08-07T01:04:05.490Z,935.60
2022-08-07T01:05:05.505Z,935.58
2022-08-07T01:06:05.516Z,935.64
2022-08-07T01:07:05.530Z,935.57
2022-08-07T01:08:05.543Z,935.53
2022-08-07T01:09:05.563Z,935.50
2022-08-07T01:10:11.469Z,935.49
2022-08-07T01:12:04.842Z,935.47
2022-08-07T01:12:27.729Z,935.47
2022-08-07T01:13:05.609Z,935.51
2022-08-07T01:14:05.622Z,935.49
2022-08-07T01:15:05.637Z,935.51
2022-08-07T01:16:06.091Z,935.52
2022-08-07T01:17:07.165Z,935.51
2022-08-07T01:18:05.673Z,935.49
2022-08-07T01:19:14.875Z,935.49
2022-08-07T01:20:05.700Z,935.47
2022-08-07T01:21:05.713Z,935.44
2022-08-07T01:22:08.848Z,935.46
2022-08-07T01:23:12.046Z,935.49
2022-08-07T01:24:05.753Z,935.51
2022-08-07T01:25:54.810Z,935.51
2022-08-07T01:26:05.781Z,935.51
2022-08-07T01:27:05.797Z,935.51
2022-08-07T01:28:05.805Z,935.56
2022-08-07T01:29:05.820Z,935.51
2022-08-07T01:30:05.833Z,935.49
2022-08-07T01:31:05.845Z,935.45
2022-08-07T01:32:05.861Z,935.46
2022-08-07T01:33:05.871Z,935.45
2022-08-07T01:34:05.886Z,935.44
2022-08-07T01:35:05.899Z,935.42
2022-08-07T01:36:07.545Z,935.42
2022-08-07T01:37:05.926Z,935.39
2022-08-07T01:38:05.949Z,935.45
2022-08-07T01:39:10.030Z,935.46
2022-08-07T01:40:06.000Z,935.48
2022-08-07T01:41:05.985Z,935.49
2022-08-07T01:42:37.725Z,935.48
2022-08-07T01:43:06.005Z,935.43
2022-08-07T01:44:06.017Z,935.41
2022-08-07T01:45:09.695Z,935.43
2022-08-07T01:46:06.048Z,935.46
2022-08-07T01:48:16.674Z,935.43
2022-08-07T01:48:18.426Z,935.37
2022-08-07T01:49:06.084Z,935.37
2022-08-07T01:50:06.096Z,935.35
2022-08-07T01:51:24.574Z,935.35
2022-08-07T01:52:06.122Z,935.33
2022-08-07T01:53:08.673Z,935.27
2022-08-07T01:54:08.739Z,935.25
2022-08-07T01:55:06.163Z,935.31
2022-08-07T01:56:06.177Z,935.30
2022-08-07T01:57:06.852Z,935.34
2022-08-07T01:58:29.074Z,935.30
2022-08-07T01:59:06.218Z,935.31
2022-08-07T02:00:13.365Z,935.33
2022-08-07T02:01:09.882Z,935.34
2022-08-07T02:02:06.619Z,935.34
2022-08-07T02:03:19.198Z,935.36
2022-08-07T02:04:06.349Z,935.35
2022-08-07T02:05:06.295Z,935.36
2022-08-07T02:06:09.021Z,935.35
2022-08-07T02:07:06.323Z,935.30
2022-08-07T02:08:06.331Z,935.22
2022-08-07T02:09:06.346Z,935.18
2022-08-07T02:10:06.359Z,935.17
2022-08-07T02:11:06.373Z,935.21
2022-08-07T02:12:06.385Z,935.20
2022-08-07T02:13:07.764Z,935.20
2022-08-07T02:14:06.411Z,935.19
2022-08-07T02:15:06.877Z,935.21
2022-08-07T02:16:07.454Z,935.24
2022-08-07T02:17:06.455Z,935.26
2022-08-07T02:18:06.616Z,935.27
2022-08-07T02:20:04.299Z,935.26
2022-08-07T02:20:09.943Z,935.32
2022-08-07T02:21:06.596Z,935.28
2022-08-07T02:22:07.739Z,935.27
2022-08-07T02:23:06.532Z,935.22
2022-08-07T02:24:06.544Z,935.16
2022-08-07T02:25:07.188Z,935.17
2022-08-07T02:26:26.720Z,935.17
2022-08-07T02:27:06.583Z,935.20
2022-08-07T02:28:06.978Z,935.21
2022-08-07T02:29:06.612Z,935.26
2022-08-07T02:30:07.424Z,935.32
2022-08-07T02:31:18.725Z,935.30
2022-08-07T02:32:06.649Z,935.24
2022-08-07T02:33:09.519Z,935.13
2022-08-07T02:34:11.407Z,935.04
2022-08-07T02:35:09.228Z,934.97
2022-08-07T02:36:28.378Z,934.91
2022-08-07T02:37:08.083Z,934.85
2022-08-07T02:38:06.728Z,934.83
2022-08-07T02:39:16.516Z,934.81
2022-08-07T02:40:30.060Z,934.81
2022-08-07T02:41:07.928Z,934.84
2022-08-07T02:42:10.083Z,934.87
2022-08-07T02:43:07.869Z,934.87
2022-08-07T02:44:06.806Z,934.89
2022-08-07T02:45:07.229Z,934.87
2022-08-07T02:46:06.832Z,934.95
2022-08-07T02:47:06.846Z,935.01
2022-08-07T02:48:10.276Z,934.99
2022-08-07T02:49:06.871Z,934.99
2022-08-07T02:50:06.887Z,935.01
2022-08-07T02:51:06.905Z,935.06
2022-08-07T02:52:06.911Z,935.07
2022-08-07T02:53:06.926Z,935.03
2022-08-07T02:54:06.939Z,934.98
2022-08-07T02:55:27.979Z,934.98
2022-08-07T02:56:11.271Z,934.97
2022-08-07T02:57:06.978Z,934.94
2022-08-07T02:58:06.992Z,934.89
2022-08-07T02:59:07.005Z,934.91
2022-08-07T03:00:10.914Z,934.86
2022-08-07T03:01:15.988Z,934.83
2022-08-07T03:02:07.162Z,934.83
2022-08-07T03:03:07.057Z,934.75
2022-08-07T03:04:12.266Z,934.73
2022-08-07T03:05:07.091Z,934.75
2022-08-07T03:06:07.095Z,934.76
2022-08-07T03:07:10.557Z,934.79
2022-08-07T03:08:10.251Z,934.80
2022-08-07T03:09:07.134Z,934.80
2022-08-07T03:10:07.149Z,934.77
2022-08-07T03:11:07.162Z,934.75
2022-08-07T03:12:07.976Z,934.68
2022-08-07T03:13:07.188Z,934.65
2022-08-07T03:14:07.205Z,934.61
2022-08-07T03:15:07.457Z,934.65
2022-08-07T03:16:07.226Z,934.68
2022-08-07T03:17:08.839Z,934.70
2022-08-07T03:18:07.254Z,934.72
2022-08-07T03:19:07.265Z,934.69
2022-08-07T03:20:07.277Z,934.71
2022-08-07T03:21:08.867Z,934.73
2022-08-07T03:22:07.307Z,934.73
2022-08-07T03:23:14.363Z,934.74
2022-08-07T03:24:21.129Z,934.77
2022-08-07T03:25:07.345Z,934.79
2022-08-07T03:26:07.358Z,934.76
2022-08-07T03:27:09.041Z,934.79
2022-08-07T03:28:09.675Z,934.77
2022-08-07T03:29:11.012Z,934.77
2022-08-07T03:30:07.410Z,934.75
2022-08-07T03:31:07.424Z,934.76
2022-08-07T03:32:07.436Z,934.71
2022-08-07T03:33:07.911Z,934.68
2022-08-07T03:34:07.463Z,934.70
2022-08-07T03:35:17.535Z,934.66
2022-08-07T03:36:07.488Z,934.59
2022-08-07T03:37:12.297Z,934.58
2022-08-07T03:38:07.516Z,934.49
2022-08-07T03:39:07.576Z,934.48
2022-08-07T03:40:15.278Z,934.43
2022-08-07T03:41:07.554Z,934.36
2022-08-07T03:42:07.566Z,934.36
2022-08-07T03:43:09.991Z,934.31
2022-08-07T03:44:07.593Z,934.29
2022-08-07T03:45:07.607Z,934.23
2022-08-07T03:46:10.589Z,934.23
2022-08-07T03:47:11.256Z,934.22
2022-08-07T03:48:10.145Z,934.25
2022-08-07T03:49:07.659Z,934.23
2022-08-07T03:50:07.672Z,934.26
2022-08-07T03:51:07.686Z,934.26
2022-08-07T03:52:07.699Z,934.22
2022-08-07T03:53:07.711Z,934.22
2022-08-07T03:54:36.280Z,934.24
2022-08-07T03:55:08.026Z,934.25
2022-08-07T03:56:07.752Z,934.25
2022-08-07T03:57:07.762Z,934.24
2022-08-07T03:58:33.329Z,934.26
2022-08-07T03:59:09.418Z,934.22
2022-08-07T04:00:07.804Z,934.25
2022-08-07T04:01:07.816Z,934.24
2022-08-07T04:02:07.830Z,934.29
2022-08-07T04:03:09.977Z,934.29
2022-08-07T04:04:07.854Z,934.27
2022-08-07T04:05:07.869Z,934.30
2022-08-07T04:06:07.882Z,934.30
2022-08-07T04:07:17.560Z,934.26
2022-08-07T04:08:07.909Z,934.26
2022-08-07T04:09:08.381Z,934.25
2022-08-07T04:10:07.933Z,934.24
2022-08-07T04:12:25.548Z,934.24
2022-08-07T04:12:27.495Z,934.28
2022-08-07T04:13:07.972Z,934.19
2022-08-07T04:14:32.896Z,934.18
2022-08-07T04:15:07.999Z,934.14
2022-08-07T04:16:10.738Z,934.12
2022-08-07T04:17:20.375Z,934.05
2022-08-07T04:18:56.413Z,934.06
2022-08-07T04:19:14.865Z,934.03
2022-08-07T04:20:08.067Z,933.98
2022-08-07T04:21:08.078Z,933.96
2022-08-07T04:22:13.358Z,934.00
2022-08-07T04:23:08.106Z,933.95
2022-08-07T04:24:08.117Z,933.97
2022-08-07T04:25:11.940Z,933.98
2022-08-07T04:26:08.144Z,933.95
2022-08-07T04:27:15.302Z,934.02
2022-08-07T04:28:08.262Z,933.99
2022-08-07T04:29:11.039Z,933.97
2022-08-07T04:30:20.953Z,933.93
2022-08-07T04:31:08.208Z,933.90
2022-08-07T04:32:10.813Z,933.88
2022-08-07T04:33:08.236Z,933.90
2022-08-07T04:34:16.892Z,933.87
2022-08-07T04:35:11.259Z,933.88
2022-08-07T04:36:08.274Z,933.86
2022-08-07T04:37:20.276Z,933.78
2022-08-07T04:38:08.414Z,933.74
2022-08-07T04:39:08.354Z,933.74
2022-08-07T04:40:08.328Z,933.68
2022-08-07T04:41:08.339Z,933.61
2022-08-07T04:42:08.353Z,933.55
2022-08-07T04:43:08.366Z,933.53
2022-08-07T04:44:12.497Z,933.55
2022-08-07T04:45:08.516Z,933.53
2022-08-07T04:46:12.343Z,933.54
2022-08-07T04:47:09.120Z,933.54
2022-08-07T04:48:10.662Z,933.55
2022-08-07T04:49:24.273Z,933.54
2022-08-07T04:50:11.023Z,933.55
2022-08-07T04:51:09.206Z,933.55
2022-08-07T04:52:08.482Z,933.54
2022-08-07T04:53:09.191Z,933.52
2022-08-07T04:54:08.515Z,933.48
2022-08-07T04:55:15.273Z,933.48
2022-08-07T04:58:11.332Z,933.49
2022-08-07T04:58:12.324Z,933.51
2022-08-07T04:58:31.507Z,933.54
2022-08-07T04:59:17.085Z,933.50
2022-08-07T05:00:13.304Z,933.54
2022-08-07T05:01:13.504Z,933.50
2022-08-07T05:02:08.612Z,933.50
2022-08-07T05:03:16.837Z,933.49
2022-08-07T05:04:17.165Z,933.44
2022-08-07T05:05:11.995Z,933.39
2022-08-07T05:06:19.265Z,933.40
2022-08-07T05:07:19.759Z,933.32
2022-08-07T05:08:08.691Z,933.31
2022-08-07T05:09:08.704Z,933.28
2022-08-07T05:10:11.702Z,933.27
2022-08-07T05:11:09.123Z,933.27
2022-08-07T05:12:08.741Z,933.25
2022-08-07T05:14:45.586Z,933.22
2022-08-07T05:14:56.444Z,933.15
2022-08-07T05:15:08.785Z,933.21
2022-08-07T05:16:08.794Z,933.19
2022-08-07T05:17:08.808Z,933.20
2022-08-07T05:18:10.382Z,933.14
2022-08-07T05:19:08.834Z,933.19
2022-08-07T05:20:09.958Z,933.11
2022-08-07T05:21:08.861Z,933.11
2022-08-07T05:22:08.872Z,933.15
2022-08-07T05:23:15.559Z,933.08
2022-08-07T05:24:08.900Z,933.03
2022-08-07T05:25:11.853Z,933.03
2022-08-07T05:26:13.471Z,933.07
2022-08-07T05:27:18.400Z,933.10
2022-08-07T05:28:20.655Z,933.08
2022-08-07T05:29:08.964Z,933.15
2022-08-07T05:30:08.978Z,933.13
2022-08-07T05:31:08.992Z,933.24
2022-08-07T05:32:09.004Z,933.21
2022-08-07T05:33:09.016Z,933.29
2022-08-07T05:34:10.923Z,933.37
2022-08-07T05:35:09.044Z,933.36
2022-08-07T05:36:12.181Z,933.34
2022-08-07T05:37:09.069Z,933.25
2022-08-07T05:38:09.990Z,933.19
2022-08-07T05:40:05.054Z,933.09
2022-08-07T05:40:17.390Z,932.97
2022-08-07T05:41:14.261Z,932.91
2022-08-07T05:42:12.285Z,932.85
2022-08-07T05:43:10.511Z,932.84
2022-08-07T05:44:12.595Z,932.84
2022-08-07T05:45:25.856Z,932.81
2022-08-07T05:46:09.185Z,932.83
2022-08-07T05:47:18.080Z,932.83
2022-08-07T05:48:09.746Z,932.84
2022-08-07T05:49:12.102Z,932.83
2022-08-07T05:50:09.238Z,932.85
2022-08-07T05:51:09.251Z,932.86
2022-08-07T05:52:11.599Z,932.86
2022-08-07T05:54:09.384Z,932.93
2022-08-07T05:54:29.802Z,932.96
2022-08-07T05:55:10.672Z,932.97
2022-08-07T05:56:09.318Z,932.87
2022-08-07T05:57:09.334Z,932.85
2022-08-07T05:58:09.341Z,932.85
2022-08-07T05:59:09.357Z,932.91
2022-08-07T06:00:09.367Z,932.86
2022-08-07T06:01:10.717Z,932.87
2022-08-07T06:02:09.464Z,932.93
2022-08-07T06:03:09.408Z,932.91
2022-08-07T06:04:09.421Z,932.89
2022-08-07T06:05:10.731Z,932.81
2022-08-07T06:06:09.595Z,932.86
2022-08-07T06:07:09.460Z,932.81
2022-08-07T06:08:30.436Z,932.78
2022-08-07T06:09:09.485Z,932.76
2022-08-07T06:10:15.120Z,932.80
2022-08-07T06:11:09.513Z,932.81
2022-08-07T06:12:09.525Z,932.81
2022-08-07T06:13:13.741Z,932.84
2022-08-07T06:14:12.925Z,932.87
2022-08-07T06:15:09.563Z,932.87
2022-08-07T06:16:10.106Z,932.88
2022-08-07T06:17:09.589Z,932.83
2022-08-07T06:18:09.603Z,932.81
2022-08-07T06:19:17.793Z,932.73
2022-08-07T06:20:12.775Z,932.70
2022-08-07T06:22:16.584Z,932.66
2022-08-07T06:22:16.875Z,932.66
2022-08-07T06:23:46.145Z,932.64
2022-08-07T06:24:45.895Z,932.63
2022-08-07T06:25:10.278Z,932.61
2022-08-07T06:26:09.705Z,932.58
2022-08-07T06:27:09.724Z,932.59
2022-08-07T06:28:09.731Z,932.62
2022-08-07T06:29:09.745Z,932.61
2022-08-07T06:30:31.876Z,932.62
2022-08-07T06:31:09.782Z,932.67
2022-08-07T06:32:09.783Z,932.70
2022-08-07T06:33:16.656Z,932.73
2022-08-07T06:34:09.845Z,932.77
2022-08-07T06:35:17.982Z,932.76
2022-08-07T06:36:13.671Z,932.74
2022-08-07T06:37:11.271Z,932.76
2022-08-07T06:38:20.269Z,932.79
2022-08-07T06:40:17.766Z,932.81
2022-08-07T06:40:18.290Z,932.85
2022-08-07T06:41:13.201Z,932.79
2022-08-07T06:42:09.974Z,932.76
2022-08-07T06:43:21.290Z,932.82
2022-08-07T06:44:10.951Z,932.81
2022-08-07T06:45:11.096Z,932.86
2022-08-07T06:46:12.213Z,932.88
2022-08-07T06:47:12.609Z,932.86
2022-08-07T06:48:11.445Z,932.82
2022-08-07T06:49:10.004Z,932.80
2022-08-07T06:50:10.991Z,932.79
2022-08-07T06:51:10.030Z,932.78
2022-08-07T06:52:10.367Z,932.81
2022-08-07T06:53:49.130Z,932.80
2022-08-07T06:55:31.762Z,932.83
2022-08-07T06:55:32.930Z,932.79
2022-08-07T06:56:15.296Z,932.75
2022-08-07T06:57:10.108Z,932.76
2022-08-07T06:58:10.301Z,932.72
2022-08-07T07:00:12.087Z,932.66
2022-08-07T07:00:12.817Z,932.65
2022-08-07T07:01:10.206Z,932.65
2022-08-07T07:02:11.267Z,932.60
2022-08-07T07:03:13.978Z,932.55
2022-08-07T07:04:32.243Z,932.47
2022-08-07T07:05:12.770Z,932.41
2022-08-07T07:06:11.202Z,932.41
2022-08-07T07:07:10.811Z,932.39
2022-08-07T07:08:12.441Z,932.38
2022-08-07T07:09:10.264Z,932.36
2022-08-07T07:10:10.276Z,932.38
2022-08-07T07:11:13.975Z,932.35
2022-08-07T07:12:19.266Z,932.31
2022-08-07T07:13:10.315Z,932.33
2022-08-07T07:14:10.327Z,932.25
2022-08-07T07:15:24.182Z,932.21
2022-08-07T07:16:10.353Z,932.16
2022-08-07T07:17:16.218Z,932.13
2022-08-07T07:18:10.379Z,932.14
2022-08-07T07:19:33.873Z,932.19
2022-08-07T07:20:10.406Z,932.16
2022-08-07T07:21:13.647Z,932.19
2022-08-07T07:22:33.885Z,932.17
2022-08-07T07:24:06.388Z,932.12
2022-08-07T07:24:12.605Z,932.12
2022-08-07T07:26:31.115Z,932.13
2022-08-07T07:26:34.471Z,932.16
2022-08-07T07:27:10.498Z,932.23
2022-08-07T07:28:42.050Z,932.21
2022-08-07T07:29:39.501Z,932.25
2022-08-07T07:30:12.144Z,932.21
2022-08-07T07:31:10.551Z,932.21
2022-08-07T07:32:10.561Z,932.23
2022-08-07T07:33:11.720Z,932.24
2022-08-07T07:34:10.587Z,932.21
2022-08-07T07:35:10.601Z,932.20
2022-08-07T07:36:12.713Z,932.15
2022-08-07T07:37:22.130Z,932.16
2022-08-07T07:38:11.456Z,932.14
2022-08-07T07:39:10.715Z,932.15
2022-08-07T07:40:15.235Z,932.13
2022-08-07T07:41:10.677Z,932.19
2022-08-07T07:42:13.603Z,932.21
2022-08-07T07:43:15.418Z,932.20
2022-08-07T07:44:16.849Z,932.21
2022-08-07T07:45:10.728Z,932.16
2022-08-07T07:46:38.064Z,932.16
2022-08-07T07:47:14.333Z,932.15
2022-08-07T07:48:11.062Z,932.17
2022-08-07T07:50:33.877Z,932.17
2022-08-07T07:50:35.613Z,932.22
2022-08-07T07:51:10.809Z,932.22
2022-08-07T07:52:10.818Z,932.27
2022-08-07T07:53:20.421Z,932.29
2022-08-07T07:54:10.847Z,932.31
2022-08-07T07:55:11.535Z,932.35
2022-08-07T07:56:10.870Z,932.40
2022-08-07T07:57:11.223Z,932.37
2022-08-07T07:58:10.898Z,932.34
2022-08-07T07:59:10.910Z,932.37
2022-08-07T08:00:10.923Z,932.35
2022-08-07T08:02:03.684Z,932.33
2022-08-07T08:02:11.080Z,932.33
2022-08-07T08:03:16.805Z,932.34
2022-08-07T08:04:11.943Z,932.33
2022-08-07T08:05:14.279Z,932.36
2022-08-07T08:06:11.635Z,932.33
2022-08-07T08:07:11.014Z,932.28
2022-08-07T08:08:32.346Z,932.30
2022-08-07T08:09:11.041Z,932.23
2022-08-07T08:10:14.831Z,932.27
2022-08-07T08:11:13.641Z,932.27
2022-08-07T08:12:11.078Z,932.26
2022-08-07T08:13:15.284Z,932.26
2022-08-07T08:14:11.107Z,932.30
2022-08-07T08:15:11.118Z,932.28
2022-08-07T08:16:12.725Z,932.30
2022-08-07T08:17:56.499Z,932.30
2022-08-07T08:18:17.922Z,932.31
2022-08-07T08:20:15.902Z,932.31
2022-08-07T08:20:17.596Z,932.32
2022-08-07T08:21:11.195Z,932.32
2022-08-07T08:22:11.211Z,932.31
2022-08-07T08:23:11.225Z,932.30
2022-08-07T08:24:36.467Z,932.35
2022-08-07T08:25:18.319Z,932.35
2022-08-07T08:26:11.262Z,932.33
2022-08-07T08:27:11.273Z,932.32
2022-08-07T08:28:11.284Z,932.40
2022-08-07T08:29:11.301Z,932.35
2022-08-07T08:30:14.356Z,932.39
2022-08-07T08:31:15.788Z,932.34
2022-08-07T08:32:18.005Z,932.35
2022-08-07T08:33:16.124Z,932.35
2022-08-07T08:34:12.431Z,932.40
2022-08-07T08:35:11.377Z,932.46
2022-08-07T08:36:11.394Z,932.40
2022-08-07T08:38:01.578Z,932.41
2022-08-07T08:38:11.592Z,932.45
2022-08-07T08:39:11.476Z,932.50
2022-08-07T08:40:12.367Z,932.50
2022-08-07T08:41:11.977Z,932.52
2022-08-07T08:42:11.468Z,932.53
2022-08-07T08:43:11.481Z,932.53
2022-08-07T08:44:11.497Z,932.58
2022-08-07T08:45:13.212Z,932.56
2022-08-07T08:46:11.518Z,932.58
2022-08-07T08:47:11.532Z,932.61
2022-08-07T08:48:11.543Z,932.59
2022-08-07T08:49:11.557Z,932.59
2022-08-07T08:50:15.115Z,932.62
2022-08-07T08:51:14.335Z,932.59
2022-08-07T08:52:14.041Z,932.58
2022-08-07T08:53:11.609Z,932.58
2022-08-07T08:54:11.620Z,932.52
2022-08-07T08:55:12.176Z,932.54
2022-08-07T08:56:12.074Z,932.56
2022-08-07T08:57:11.660Z,932.52
2022-08-07T08:58:13.155Z,932.54
2022-08-07T08:59:12.846Z,932.50
2022-08-07T09:00:11.700Z,932.52
2022-08-07T09:01:15.169Z,932.59
2022-08-07T09:02:11.824Z,932.60
2022-08-07T09:03:11.739Z,932.63
2022-08-07T09:04:13.442Z,932.68
2022-08-07T09:05:11.764Z,932.73
2022-08-07T09:06:11.778Z,932.79
2022-08-07T09:07:11.792Z,932.83
2022-08-07T09:08:11.803Z,932.85
2022-08-07T09:09:20.801Z,932.89
2022-08-07T09:10:11.828Z,932.99
2022-08-07T09:11:13.985Z,933.05
2022-08-07T09:12:30.205Z,933.14
2022-08-07T09:13:14.796Z,933.17
2022-08-07T09:14:11.879Z,933.21
2022-08-07T09:16:25.606Z,933.21
2022-08-07T09:16:25.761Z,933.24
2022-08-07T09:17:11.919Z,933.23
2022-08-07T09:18:13.888Z,933.22
2022-08-07T09:19:52.041Z,933.18
2022-08-07T09:20:35.333Z,933.21
2022-08-07T09:21:13.703Z,933.14
2022-08-07T09:24:29.214Z,933.12
2022-08-07T09:24:32.505Z,933.10
2022-08-07T09:24:32.557Z,933.06
2022-08-07T09:25:14.773Z,933.06
2022-08-07T09:26:12.035Z,933.05
2022-08-07T09:27:13.616Z,933.09
2022-08-07T09:30:04.761Z,933.06
2022-08-07T09:30:05.237Z,933.13
2022-08-07T09:30:12.087Z,933.10
2022-08-07T09:31:12.100Z,933.04
2022-08-07T09:32:18.530Z,933.04
2022-08-07T09:33:16.684Z,933.14
2022-08-07T09:34:12.139Z,933.17
2022-08-07T09:36:02.768Z,933.21
2022-08-07T09:36:12.163Z,933.27
2022-08-07T09:37:12.177Z,933.27
2022-08-07T09:38:12.190Z,933.27
2022-08-07T09:39:52.906Z,933.27
2022-08-07T09:40:12.241Z,933.28
2022-08-07T09:41:12.228Z,933.31
2022-08-07T09:42:17.032Z,933.30
2022-08-07T09:43:12.256Z,933.36
2022-08-07T09:44:30.061Z,933.39
2022-08-07T09:47:24.370Z,933.43
2022-08-07T09:47:26.313Z,933.41
2022-08-07T09:47:49.766Z,933.44
2022-08-07T09:48:14.600Z,933.46
2022-08-07T09:50:01.284Z,933.45
2022-08-07T09:50:19.573Z,933.47
2022-08-07T09:51:25.964Z,933.51
2022-08-07T09:52:33.759Z,933.53
2022-08-07T09:53:12.655Z,933.50
2022-08-07T09:54:16.404Z,933.54
2022-08-07T09:55:16.867Z,933.53
2022-08-07T09:56:12.422Z,933.55
2022-08-07T09:57:12.958Z,933.56
2022-08-07T09:58:12.449Z,933.60
2022-08-07T09:59:14.569Z,933.61
2022-08-07T10:00:14.731Z,933.61
2022-08-07T10:01:14.905Z,933.67
2022-08-07T10:02:13.226Z,933.67
2022-08-07T10:04:04.010Z,933.67
2022-08-07T10:04:14.773Z,933.68
2022-08-07T10:05:13.889Z,933.67
2022-08-07T10:06:12.633Z,933.73
2022-08-07T10:07:24.655Z,933.75
2022-08-07T10:08:12.577Z,933.79
2022-08-07T10:09:15.168Z,933.80
2022-08-07T10:10:21.328Z,933.83
2022-08-07T10:11:16.710Z,933.84
2022-08-07T10:12:19.673Z,933.89
2022-08-07T10:13:29.780Z,933.86
2022-08-07T10:14:12.655Z,933.89
2022-08-07T10:15:15.501Z,933.92
2022-08-07T10:16:12.678Z,933.93
2022-08-07T10:17:16.509Z,933.88
2022-08-07T10:18:12.705Z,933.89
2022-08-07T10:19:12.718Z,933.89
2022-08-07T10:20:13.135Z,933.87
2022-08-07T10:21:50.820Z,933.89
2022-08-07T10:22:16.157Z,933.89
2022-08-07T10:23:12.876Z,933.90
2022-08-07T10:24:15.975Z,933.93
2022-08-07T10:25:12.796Z,933.91
2022-08-07T10:26:12.808Z,933.91
2022-08-07T10:27:12.824Z,933.94
2022-08-07T10:28:12.836Z,933.94
2022-08-07T10:29:12.847Z,933.97
2022-08-07T10:30:14.373Z,933.95
2022-08-07T10:31:12.888Z,933.92
2022-08-07T10:32:36.474Z,933.88
2022-08-07T10:33:14.959Z,933.87
2022-08-07T10:34:15.365Z,933.88
2022-08-07T10:35:14.949Z,933.91
2022-08-07T10:36:12.937Z,933.92
2022-08-07T10:37:12.950Z,933.93
2022-08-07T10:38:21.121Z,933.95
2022-08-07T10:39:13.028Z,933.94
2022-08-07T10:40:13.120Z,934.00
2022-08-07T10:41:13.003Z,934.03
2022-08-07T10:42:21.266Z,934.08
2022-08-07T10:43:13.029Z,934.11
2022-08-07T10:44:13.042Z,934.08
2022-08-07T10:45:13.056Z,934.15
2022-08-07T10:46:13.066Z,934.14
2022-08-07T10:47:14.267Z,934.12
2022-08-07T10:48:13.091Z,934.12
2022-08-07T10:49:13.105Z,934.15
2022-08-07T10:50:15.201Z,934.17
2022-08-07T10:51:16.950Z,934.13
2022-08-07T10:52:14.037Z,934.12
2022-08-07T10:53:13.158Z,934.14
2022-08-07T10:54:13.172Z,934.15
2022-08-07T10:55:26.748Z,934.15
2022-08-07T10:56:20.616Z,934.16
2022-08-07T10:57:13.208Z,934.15
2022-08-07T10:58:13.273Z,934.16
2022-08-07T10:59:13.530Z,934.17
2022-08-07T11:00:43.009Z,934.14
2022-08-07T11:01:13.292Z,934.10
2022-08-07T11:02:33.278Z,934.11
2022-08-07T11:03:13.375Z,934.12
2022-08-07T11:04:31.622Z,934.13
2022-08-07T11:05:13.310Z,934.20
2022-08-07T11:06:18.372Z,934.25
2022-08-07T11:07:15.172Z,934.26
2022-08-07T11:08:16.324Z,934.29
2022-08-07T11:10:07.162Z,934.32
2022-08-07T11:10:13.489Z,934.40
2022-08-07T11:11:13.388Z,934.41
2022-08-07T11:12:13.405Z,934.43
2022-08-07T11:14:42.360Z,934.48
2022-08-07T11:14:56.859Z,934.52
2022-08-07T11:15:17.452Z,934.60
2022-08-07T11:16:13.452Z,934.63
2022-08-07T11:17:13.464Z,934.64
2022-08-07T11:18:13.478Z,934.64
2022-08-07T11:19:13.491Z,934.65
2022-08-07T11:20:13.579Z,934.66
2022-08-07T11:21:14.229Z,934.66
2022-08-07T11:22:26.702Z,934.72
2022-08-07T11:23:13.541Z,934.71
2022-08-07T11:24:13.555Z,934.69
2022-08-07T11:25:14.917Z,934.79
2022-08-07T11:26:13.580Z,934.78
2022-08-07T11:27:13.765Z,934.82
2022-08-07T11:28:15.519Z,934.87
2022-08-07T11:29:41.726Z,934.96
2022-08-07T11:30:18.897Z,935.03
2022-08-07T11:31:13.646Z,935.06
2022-08-07T11:32:13.658Z,935.15
2022-08-07T11:33:14.057Z,935.19
2022-08-07T11:34:16.322Z,935.22
2022-08-07T11:35:16.488Z,935.21
2022-08-07T11:36:13.715Z,935.21
2022-08-07T11:37:13.726Z,935.19
2022-08-07T11:38:17.304Z,935.12
2022-08-07T11:39:14.510Z,935.12
2022-08-07T11:40:19.322Z,935.09
2022-08-07T11:41:22.105Z,935.10
2022-08-07T11:42:18.716Z,935.11
2022-08-07T11:43:15.497Z,935.13
2022-08-07T11:44:18.461Z,935.12
2022-08-07T11:45:13.826Z,935.19
2022-08-07T11:46:13.838Z,935.23
2022-08-07T11:47:13.857Z,935.25
2022-08-07T11:48:18.135Z,935.29
2022-08-07T11:49:51.391Z,935.34
2022-08-07T11:50:31.992Z,935.43
2022-08-07T11:51:41.747Z,935.48
2022-08-07T11:52:13.914Z,935.50
2022-08-07T11:53:13.930Z,935.48
2022-08-07T11:54:13.944Z,935.57
2022-08-07T11:56:08.598Z,935.57
2022-08-07T11:56:27.102Z,935.57
2022-08-07T11:57:14.311Z,935.59
2022-08-07T11:58:16.439Z,935.64
2022-08-07T12:00:07.996Z,935.69
2022-08-07T12:00:19.157Z,935.72
2022-08-07T12:01:20.180Z,935.72
2022-08-07T12:02:20.660Z,935.71
2022-08-07T12:03:41.888Z,935.73
2022-08-07T12:04:14.070Z,935.75
2022-08-07T12:05:15.113Z,935.74
2022-08-07T12:06:39.009Z,935.75
2022-08-07T12:07:20.228Z,935.73
2022-08-07T12:08:25.975Z,935.78
2022-08-07T12:09:16.680Z,935.75
2022-08-07T12:10:14.147Z,935.80
2022-08-07T12:11:21.009Z,935.79
2022-08-07T12:12:14.173Z,935.77
2022-08-07T12:13:17.103Z,935.83
2022-08-07T12:14:14.199Z,935.84
2022-08-07T12:15:17.184Z,935.89
2022-08-07T12:16:14.222Z,935.88
2022-08-07T12:17:19.598Z,935.89
2022-08-07T12:18:16.102Z,935.93
2022-08-07T12:19:14.601Z,935.97
2022-08-07T12:20:29.658Z,936.01
2022-08-07T12:21:15.022Z,936.08
2022-08-07T12:22:38.436Z,936.12
2022-08-07T12:23:14.680Z,936.19
2022-08-07T12:24:37.718Z,936.24
2022-08-07T12:25:17.871Z,936.31
2022-08-07T12:26:28.958Z,936.32
2022-08-07T12:27:16.424Z,936.34
2022-08-07T12:28:14.817Z,936.33